Westville, Illinois
Current Conditions -  °F | °C
As of 4:15 PM on Tuesday 21 Oct 2014 (Local Time) from KDNV Reporting Station
Overcast Overcast  
Wind Chill: 53°   Ceiling: 5000
Heat Index: 53°   Visibility: 10mi
Dew Point: 44°   Wind: 15mph
Humidity: 71%   Direction: 350°N
Pressure: 30.13"   Gusts: NA
Location:  40.04°N, 87.64°W
Report Text: KDNV 212115Z AUTO 35013KT 10SM SCT026 OVC050 12/07 A3013 RMK AO2 T01160065
Loading
Personal Weather Stations






























Interactive Weather Map
Tropical Storm Tracking
New forecast layout! Learn more

10-Day Weather Forecast

Advertisements
Track Severe Weather on mobile